Time;durP1;ratioP1;P1;durP2;ratioP2;P2;SDS_P1;SDS_P2;PMS_P1;PMS_P2;Temp;Humidity;BMP_temperature;BMP_pressure;BME280_temperature;BME280_humidity;BME280_pressure;Samples;Min_cycle;Max_cycle;Signal;HPM_P1;HPM_P2
2021/04/24 00:01:24;;;;;;;18.95;9.48;;;;;;;4.27;100.00;102891.66;3570029;40;20061;-61
2021/04/24 00:03:50;;;;;;;17.83;9.32;;;;;;;4.18;100.00;102892.78;3571022;40;20064;-60
2021/04/24 00:06:16;;;;;;;21.33;9.88;;;;;;;4.09;100.00;102891.25;3568166;40;20045;-61
2021/04/24 00:08:42;;;;;;;19.58;9.52;;;;;;;3.98;100.00;102891.56;3568096;40;20055;-60
2021/04/24 00:11:08;;;;;;;24.25;10.30;;;;;;;3.92;100.00;102891.75;3570039;40;20057;-59
2021/04/24 00:13:34;;;;;;;21.73;10.75;;;;;;;3.91;100.00;102881.13;3570697;40;20101;-59
2021/04/24 00:16:00;;;;;;;20.55;9.98;;;;;;;3.88;100.00;102881.22;3569832;40;20077;-59
2021/04/24 00:18:27;;;;;;;18.88;9.75;;;;;;;3.90;100.00;102887.38;3569420;40;20041;-59
2021/04/24 00:20:53;;;;;;;19.33;9.20;;;;;;;3.87;100.00;102891.00;3569427;40;20103;-60
2021/04/24 00:23:19;;;;;;;18.80;9.68;;;;;;;3.92;100.00;102885.56;3570651;40;20061;-60
2021/04/24 00:25:45;;;;;;;17.20;9.90;;;;;;;3.79;100.00;102888.53;3570493;40;20052;-59
2021/04/24 00:28:13;;;;;;;17.08;9.75;;;;;;;3.81;100.00;102884.06;3570960;40;20041;-60
2021/04/24 00:30:40;;;;;;;23.42;10.15;;;;;;;3.67;100.00;102880.91;3569243;40;20418;-60
2021/04/24 00:33:07;;;;;;;21.05;10.55;;;;;;;3.64;100.00;102891.63;3569931;40;20045;-62
2021/04/24 00:35:34;;;;;;;19.90;9.18;;;;;;;3.61;100.00;102886.41;3570211;40;20059;-63
2021/04/24 00:38:01;;;;;;;23.67;9.13;;;;;;;3.58;100.00;102887.34;3569624;40;20055;-60
2021/04/24 00:40:27;;;;;;;17.00;9.43;;;;;;;3.63;100.00;102877.44;3567919;40;20048;-60
2021/04/24 00:42:53;;;;;;;21.23;9.35;;;;;;;3.44;100.00;102879.69;3570097;40;20057;-60
2021/04/24 00:45:21;;;;;;;21.35;10.02;;;;;;;3.39;100.00;102881.63;3569537;40;20048;-61
2021/04/24 00:47:47;;;;;;;17.67;8.93;;;;;;;3.44;100.00;102874.38;3571628;40;20059;-62
2021/04/24 00:50:18;;;;;;;21.73;10.02;;;;;;;3.43;100.00;102877.97;3570752;40;20043;-60
2021/04/24 00:52:45;;;;;;;19.67;9.13;;;;;;;3.36;100.00;102876.38;3571219;40;20053;-61
2021/04/24 00:55:12;;;;;;;19.25;10.00;;;;;;;3.35;100.00;102884.41;3570185;40;20045;-59
2021/04/24 00:57:38;;;;;;;16.48;9.02;;;;;;;3.23;100.00;102886.47;3571596;40;20158;-59
2021/04/24 01:00:06;;;;;;;18.00;9.20;;;;;;;3.21;100.00;102887.41;3569192;40;20057;-58
2021/04/24 01:02:32;;;;;;;20.83;8.90;;;;;;;3.13;100.00;102885.81;3571083;40;20080;-61
2021/04/24 01:04:58;;;;;;;18.98;9.23;;;;;;;3.11;100.00;102887.66;3570705;40;22271;-62
2021/04/24 01:07:25;;;;;;;21.35;10.27;;;;;;;3.10;100.00;102885.88;3569794;40;20951;-58
2021/04/24 01:09:51;;;;;;;17.02;9.70;;;;;;;3.20;100.00;102881.22;3569477;40;20045;-61
2021/04/24 01:12:17;;;;;;;21.08;10.20;;;;;;;3.15;100.00;102878.69;3568061;40;20404;-59
2021/04/24 01:14:43;;;;;;;21.25;9.98;;;;;;;3.14;100.00;102882.25;3571637;40;20084;-58
2021/04/24 01:17:09;;;;;;;19.70;9.90;;;;;;;3.07;100.00;102880.63;3570748;40;20056;-59
2021/04/24 01:19:36;;;;;;;20.02;9.30;;;;;;;2.89;100.00;102878.44;3569550;40;20052;-59
2021/04/24 01:22:08;;;;;;;19.67;9.02;;;;;;;2.87;100.00;102872.28;3570176;40;20322;-61
2021/04/24 01:24:34;;;;;;;18.10;9.00;;;;;;;2.91;100.00;102876.63;3570367;40;20053;-60
2021/04/24 01:27:00;;;;;;;21.83;9.00;;;;;;;2.90;100.00;102875.75;3570900;40;20675;-60
2021/04/24 01:29:27;;;;;;;21.00;9.95;;;;;;;2.71;100.00;102872.66;3569329;40;20368;-63
2021/04/24 01:31:53;;;;;;;21.42;10.00;;;;;;;2.64;100.00;102873.69;3570240;40;21321;-62
2021/04/24 01:34:19;;;;;;;17.70;9.27;;;;;;;2.77;100.00;102866.31;3569898;40;20037;-59
2021/04/24 01:36:45;;;;;;;22.58;9.90;;;;;;;2.64;100.00;102868.38;3570398;40;20138;-59
2021/04/24 01:39:11;;;;;;;19.42;9.45;;;;;;;2.71;100.00;102864.66;3570216;40;20053;-59
2021/04/24 01:41:37;;;;;;;20.92;9.82;;;;;;;2.76;100.00;102870.75;3569729;40;20059;-58
2021/04/24 01:44:04;;;;;;;20.70;9.85;;;;;;;2.67;100.00;102870.09;3570157;40;20096;-59
2021/04/24 01:46:30;;;;;;;19.50;9.52;;;;;;;2.70;100.00;102868.22;3571166;40;20046;-62
2021/04/24 01:48:56;;;;;;;17.23;9.40;;;;;;;2.68;100.00;102867.41;3569839;40;20396;-60
2021/04/24 01:51:22;;;;;;;18.88;9.30;;;;;;;2.74;100.00;102869.00;3570973;40;20138;-60
2021/04/24 01:57:03;;;;;;;20.27;8.82;;;;;;;2.65;100.00;102872.78;3549378;40;20105;-62
2021/04/24 01:59:32;;;;;;;19.42;9.18;;;;;;;2.48;100.00;102869.63;3548695;40;20060;-59
2021/04/24 02:01:58;;;;;;;18.20;10.13;;;;;;;2.40;100.00;102873.34;3550202;40;20103;-59
2021/04/24 02:04:26;;;;;;;20.83;9.68;;;;;;;2.44;100.00;102869.72;3549318;40;20050;-62
2021/04/24 02:06:52;;;;;;;22.23;9.27;;;;;;;2.32;100.00;102869.09;3551212;40;20050;-60
2021/04/24 02:09:20;;;;;;;21.95;9.95;;;;;;;2.29;100.00;102875.34;3550733;40;20101;-60
2021/04/24 02:14:27;;;;;;;21.83;8.90;;;;;;;2.35;100.00;102875.19;3622750;22;20053;-59
2021/04/24 02:16:53;;;;;;;23.10;9.32;;;;;;;2.25;100.00;102873.66;3562580;40;20076;-59
2021/04/24 02:19:19;;;;;;;21.58;9.45;;;;;;;2.19;100.00;102868.47;3560672;40;20407;-62
2021/04/24 02:21:45;;;;;;;19.77;9.32;;;;;;;2.19;100.00;102871.13;3562340;40;20030;-62
2021/04/24 02:24:11;;;;;;;19.20;9.15;;;;;;;2.24;100.00;102866.59;3561526;40;20065;-59
2021/04/24 02:26:37;;;;;;;23.70;10.20;;;;;;;2.28;100.00;102865.59;3561649;40;20402;-60
2021/04/24 02:29:03;;;;;;;19.40;9.55;;;;;;;2.24;100.00;102867.47;3560889;40;20034;-61
2021/04/24 02:31:30;;;;;;;21.27;9.75;;;;;;;2.12;100.00;102866.84;3561748;40;20056;-59
2021/04/24 02:33:56;;;;;;;20.52;9.40;;;;;;;2.03;100.00;102865.25;3561189;40;20061;-59
2021/04/24 02:36:22;;;;;;;19.27;9.05;;;;;;;1.97;100.00;102863.59;3561394;40;20069;-60
2021/04/24 02:38:51;;;;;;;23.02;10.07;;;;;;;1.97;100.00;102863.59;3560576;40;20034;-59
2021/04/24 02:41:17;;;;;;;21.92;9.68;;;;;;;1.97;100.00;102862.72;3562336;40;20387;-59
2021/04/24 02:43:43;;;;;;;21.50;9.90;;;;;;;1.96;100.00;102867.19;3560192;40;20412;-59
2021/04/24 02:46:09;;;;;;;23.35;9.95;;;;;;;1.92;100.00;102862.81;3561103;40;20056;-62
2021/04/24 02:48:35;;;;;;;19.95;9.20;;;;;;;1.87;100.00;102877.97;3561310;40;20372;-59
2021/04/24 02:51:01;;;;;;;26.08;9.95;;;;;;;1.87;100.00;102867.34;3562536;40;20398;-60
2021/04/24 02:53:27;;;;;;;19.30;10.15;;;;;;;1.87;100.00;102868.22;3561768;40;20073;-59
2021/04/24 02:55:53;;;;;;;19.33;9.20;;;;;;;1.92;100.00;102869.00;3561976;40;20401;-59
2021/04/24 02:58:19;;;;;;;19.98;10.00;;;;;;;1.86;100.00;102870.91;3561684;40;20198;-60
2021/04/24 03:00:46;;;;;;;17.77;9.05;;;;;;;1.92;100.00;102871.66;3561689;40;20061;-59
2021/04/24 03:03:14;;;;;;;16.52;8.93;;;;;;;1.88;100.00;102875.28;3560443;40;20627;-59
2021/04/24 03:05:43;;;;;;;20.70;9.80;;;;;;;1.81;100.00;102868.34;3561438;40;20294;-60
2021/04/24 03:08:10;;;;;;;22.15;9.48;;;;;;;1.71;100.00;102866.78;3561818;40;20083;-60
2021/04/24 03:10:37;;;;;;;22.10;9.40;;;;;;;1.71;100.00;102864.13;3561520;40;20049;-59
2021/04/24 03:13:03;;;;;;;24.58;9.80;;;;;;;1.72;100.00;102864.09;3560600;40;20041;-59
2021/04/24 03:15:29;;;;;;;22.02;9.52;;;;;;;1.68;100.00;102856.19;3570314;40;20347;-59
2021/04/24 03:17:55;;;;;;;19.48;8.88;;;;;;;1.58;100.00;102864.34;3571679;40;20129;-59
2021/04/24 03:20:22;;;;;;;19.88;9.32;;;;;;;1.57;100.00;102862.59;3571236;40;20057;-59
2021/04/24 03:22:49;;;;;;;20.63;9.43;;;;;;;1.53;100.00;102857.38;3571818;40;20058;-60
2021/04/24 03:25:17;;;;;;;22.85;9.27;;;;;;;1.46;100.00;102859.28;3571120;40;20044;-59
2021/04/24 03:27:43;;;;;;;20.77;9.00;;;;;;;1.44;100.00;102863.72;3571431;40;20052;-59
2021/04/24 03:30:12;;;;;;;20.20;9.70;;;;;;;1.39;100.00;102865.59;3571513;40;20313;-59
2021/04/24 03:32:38;;;;;;;21.23;10.25;;;;;;;1.37;100.00;102856.75;3576966;40;20052;-60
2021/04/24 03:38:22;;;;;;;23.58;9.68;;;;;;;1.47;100.00;102857.47;3601756;22;20237;-61
2021/04/24 03:40:48;;;;;;;20.27;8.98;;;;;;;1.26;100.00;102864.91;3581212;40;20080;-60
2021/04/24 03:43:14;;;;;;;20.80;9.30;;;;;;;1.21;100.00;102864.13;3581182;40;20268;-62
2021/04/24 03:45:40;;;;;;;23.42;10.38;;;;;;;1.09;100.00;102861.66;3581000;40;20036;-60
2021/04/24 03:48:07;;;;;;;18.13;8.90;;;;;;;1.19;100.00;102866.81;3581006;40;20067;-61
2021/04/24 03:50:34;;;;;;;18.65;9.23;;;;;;;1.18;100.00;102864.19;3580407;40;20052;-62
2021/04/24 03:53:00;;;;;;;21.27;9.15;;;;;;;1.20;100.00;102871.19;3581979;40;20061;-60
2021/04/24 03:55:27;;;;;;;20.48;9.82;;;;;;;1.15;100.00;102864.22;3579266;40;20055;-63
2021/04/24 03:57:54;;;;;;;20.15;10.00;;;;;;;1.13;100.00;102860.72;3581088;40;20045;-61
2021/04/24 04:00:23;;;;;;;21.13;9.57;;;;;;;1.14;100.00;102859.84;3578307;40;20088;-62
2021/04/24 04:02:51;;;;;;;21.85;9.30;;;;;;;1.17;100.00;102854.47;3581325;40;20051;-58
2021/04/24 04:05:19;;;;;;;20.00;9.93;;;;;;;1.17;100.00;102863.28;3578851;40;20064;-58
2021/04/24 04:07:45;;;;;;;26.02;9.95;;;;;;;1.04;100.00;102864.41;3581283;40;20078;-58
2021/04/24 04:10:14;;;;;;;21.02;9.60;;;;;;;1.09;100.00;102861.66;3579795;40;20403;-61
2021/04/24 04:12:41;;;;;;;26.20;10.53;;;;;;;1.02;100.00;102861.78;3581128;40;20051;-61
2021/04/24 04:15:08;;;;;;;19.45;9.48;;;;;;;0.99;100.00;102866.28;3580771;40;20056;-60
2021/04/24 04:17:35;;;;;;;20.95;10.25;;;;;;;1.08;100.00;102866.13;3581043;40;20064;-61
2021/04/24 04:20:01;;;;;;;21.80;9.88;;;;;;;1.06;100.00;102867.94;3580575;40;20134;-62
2021/04/24 04:22:27;;;;;;;21.35;9.57;;;;;;;1.08;100.00;102867.91;3579585;40;20045;-60
2021/04/24 04:24:53;;;;;;;20.55;10.48;;;;;;;1.03;100.00;102865.28;3581135;40;20130;-62
2021/04/24 04:27:19;;;;;;;21.95;10.63;;;;;;;1.13;100.00;102874.00;3579996;40;20057;-59
2021/04/24 04:29:46;;;;;;;20.00;10.02;;;;;;;1.09;100.00;102875.84;3579185;40;20052;-62
2021/04/24 04:32:12;;;;;;;18.10;9.80;;;;;;;1.12;100.00;102872.22;3579801;40;20048;-61
2021/04/24 04:34:38;;;;;;;20.92;10.07;;;;;;;1.09;100.00;102870.53;3581445;40;20411;-60
2021/04/24 04:37:04;;;;;;;22.83;10.27;;;;;;;1.09;100.00;102877.59;3581277;40;20040;-63
2021/04/24 04:39:30;;;;;;;20.08;10.57;;;;;;;1.14;100.00;102871.31;3580315;40;20045;-61
2021/04/24 04:41:56;;;;;;;23.10;10.52;;;;;;;1.23;100.00;102872.94;3580005;40;20060;-62
2021/04/24 04:44:22;;;;;;;22.35;11.63;;;;;;;1.24;100.00;102877.34;3580040;40;20076;-60
2021/04/24 04:46:49;;;;;;;27.13;11.18;;;;;;;1.17;100.00;102871.25;3580946;40;20052;-60
2021/04/24 04:49:15;;;;;;;24.85;10.98;;;;;;;1.24;100.00;102869.38;3580651;40;20060;-61
2021/04/24 04:51:41;;;;;;;22.08;11.40;;;;;;;1.23;100.00;102886.19;3580735;40;22098;-59
2021/04/24 04:54:09;;;;;;;21.98;11.27;;;;;;;1.39;100.00;102874.41;3580899;40;20060;-59
2021/04/24 04:56:35;;;;;;;21.15;10.75;;;;;;;1.42;100.00;102864.66;3581499;40;20110;-60
2021/04/24 04:59:01;;;;;;;23.00;11.25;;;;;;;1.52;100.00;102860.94;3579669;40;20423;-59
2021/04/24 05:01:27;;;;;;;22.05;10.05;;;;;;;1.51;100.00;102867.16;3579872;40;20137;-60
2021/04/24 05:03:54;;;;;;;21.77;10.27;;;;;;;1.63;100.00;102869.56;3581257;40;20057;-61
2021/04/24 05:06:20;;;;;;;23.23;11.45;;;;;;;1.70;100.00;102871.19;3580274;40;20045;-61
2021/04/24 05:08:46;;;;;;;22.48;10.82;;;;;;;1.71;100.00;102864.13;3579788;40;20041;-58
2021/04/24 05:11:12;;;;;;;22.13;10.52;;;;;;;1.71;100.00;102866.78;3580834;40;20044;-58
2021/04/24 05:13:38;;;;;;;25.30;10.82;;;;;;;1.93;100.00;102877.88;3580941;40;20056;-59
2021/04/24 05:16:04;;;;;;;24.17;10.63;;;;;;;2.03;100.00;102874.13;3580840;40;20059;-59
2021/04/24 05:18:30;;;;;;;20.88;10.75;;;;;;;2.10;100.00;102875.72;3580097;40;20434;-62
2021/04/24 05:20:59;;;;;;;24.40;11.68;;;;;;;2.20;100.00;102875.53;3580377;40;20101;-59
2021/04/24 05:23:25;;;;;;;26.58;11.88;;;;;;;2.31;100.00;102870.84;3580921;40;20040;-59
2021/04/24 05:25:51;;;;;;;23.77;11.93;;;;;;;2.41;100.00;102872.41;3580772;40;20032;-59
2021/04/24 05:28:17;;;;;;;22.92;11.20;;;;;;;2.68;100.00;102883.34;3580178;40;20100;-60
2021/04/24 05:30:43;;;;;;;23.48;11.15;;;;;;;2.86;100.00;102883.84;3579416;40;20058;-59
2021/04/24 05:33:09;;;;;;;22.35;9.57;;;;;;;2.80;100.00;102883.06;3580774;40;20412;-60
2021/04/24 05:35:35;;;;;;;22.17;10.40;;;;;;;2.93;100.00;102882.75;3581196;40;20029;-61
2021/04/24 05:38:02;;;;;;;21.35;10.35;;;;;;;3.02;100.00;102886.97;3580922;40;20037;-60
2021/04/24 05:40:28;;;;;;;22.75;10.93;;;;;;;2.95;100.00;102880.94;3576303;40;20367;-59
2021/04/24 05:42:54;;;;;;;26.17;12.13;;;;;;;2.94;100.00;102884.50;3580736;40;20337;-61
2021/04/24 05:45:20;;;;;;;20.67;10.10;;;;;;;3.26;100.00;102885.53;3579996;40;20366;-61
2021/04/24 05:51:16;;;;;;;23.02;10.65;;;;;;;3.78;100.00;102881.47;3539623;40;20057;-61
2021/04/24 05:53:45;;;;;;;17.25;9.75;;;;;;;4.25;100.00;102877.50;3541293;40;20140;-59
2021/04/24 05:56:11;;;;;;;20.25;10.32;;;;;;;4.54;100.00;102877.50;3539953;40;20066;-60
2021/04/24 05:58:37;;;;;;;20.15;10.48;;;;;;;4.79;100.00;102879.41;3540301;40;20070;-60
2021/04/24 06:01:03;;;;;;;23.65;10.45;;;;;;;4.87;100.00;102881.81;3539211;40;20314;-60
2021/04/24 06:03:29;;;;;;;17.95;9.82;;;;;;;5.25;100.00;102885.88;3540589;40;20066;-59
2021/04/24 06:05:56;;;;;;;20.45;10.20;;;;;;;5.54;100.00;102884.03;3540222;40;20306;-59
2021/04/24 06:08:22;;;;;;;20.35;9.35;;;;;;;5.87;100.00;102875.72;3540244;40;20070;-60
2021/04/24 06:10:49;;;;;;;18.45;9.15;;;;;;;6.24;100.00;102889.56;3541224;40;20062;-59
2021/04/24 06:13:17;;;;;;;19.05;9.63;;;;;;;6.18;100.00;102890.66;3578293;23;20307;-61
2021/04/24 06:15:43;;;;;;;17.65;9.20;;;;;;;6.21;100.00;102884.34;3555613;40;20069;-58
2021/04/24 06:18:10;;;;;;;16.42;9.15;;;;;;;6.28;100.00;102885.84;3561712;40;20414;-59
2021/04/24 06:20:36;;;;;;;20.15;10.32;;;;;;;6.29;100.00;102885.78;3560535;40;20115;-61
2021/04/24 06:23:03;;;;;;;15.77;9.00;;;;;;;6.46;100.00;102884.28;3560886;40;20396;-60
2021/04/24 06:25:29;;;;;;;21.65;10.13;;;;;;;6.55;100.00;102885.72;3561287;40;20384;-60
2021/04/24 06:27:56;;;;;;;18.23;8.40;;;;;;;6.55;100.00;102888.38;3560892;40;20045;-61
2021/04/24 06:30:23;;;;;;;18.40;8.45;;;;;;;6.48;100.00;102885.97;3559266;40;20062;-60
2021/04/24 06:32:51;;;;;;;16.52;8.88;;;;;;;6.71;100.00;102888.66;3561048;40;20050;-59
2021/04/24 06:35:19;;;;;;;16.63;8.25;;;;;;;6.74;100.00;102893.88;3560531;40;20065;-61
2021/04/24 06:37:45;;;;;;;15.15;8.13;;;;;;;6.87;100.00;102888.94;3560804;40;20068;-60
2021/04/24 06:40:14;;;;;;;18.00;8.93;;;;;;;6.80;100.00;102881.16;3560324;40;20050;-60
2021/04/24 06:42:41;;;;;;;13.98;7.80;;;;;;;6.98;100.00;102892.91;3560546;40;20452;-59
2021/04/24 06:45:09;;;;;;;23.65;8.93;;;;;;;7.02;100.00;102893.63;3560588;40;20054;-60
2021/04/24 06:47:35;;;;;;;16.85;8.45;;;;;;;7.01;100.00;102884.75;3560187;40;20531;-59
2021/04/24 06:50:03;;;;;;;19.75;8.95;;;;;;;7.26;100.00;102896.22;3559587;40;20057;-59
2021/04/24 06:52:28;;;;;;;17.95;8.25;;;;;;;7.43;100.00;102882.13;3560078;40;20062;-59
2021/04/24 06:54:54;;;;;;;18.33;8.45;;;;;;;7.45;100.00;102880.25;3562520;40;20289;-60
2021/04/24 06:57:20;;;;;;;15.13;7.90;;;;;;;7.41;100.00;102878.66;3562278;40;20150;-60
2021/04/24 06:59:46;;;;;;;13.35;7.85;;;;;;;7.13;100.00;102887.88;3560671;40;20301;-62
2021/04/24 07:02:15;;;;;;;18.77;8.80;;;;;;;7.21;100.00;102884.84;3560541;40;20053;-59
2021/04/24 07:04:41;;;;;;;14.48;8.13;;;;;;;7.47;100.00;102878.41;3562434;40;20072;-59
2021/04/24 07:07:07;;;;;;;16.13;7.88;;;;;;;7.59;100.00;102880.53;3560750;40;20054;-63
2021/04/24 07:09:34;;;;;;;16.67;9.02;;;;;;;7.77;100.00;102883.34;3562306;40;20042;-60
2021/04/24 07:12:00;;;;;;;13.38;7.40;;;;;;;7.68;100.00;102890.84;3563056;40;20058;-62
2021/04/24 07:14:26;;;;;;;14.68;8.00;;;;;;;7.76;100.00;102889.63;3564749;40;20385;-62
2021/04/24 07:16:52;;;;;;;14.52;6.75;;;;;;;7.80;100.00;102878.75;3573033;40;20058;-61
2021/04/24 07:19:19;;;;;;;13.85;6.65;;;;;;;7.87;100.00;102879.31;3571950;40;20057;-62
2021/04/24 07:21:45;;;;;;;13.48;6.28;;;;;;;8.00;100.00;102887.69;3572396;40;20049;-60
2021/04/24 07:24:11;;;;;;;10.20;5.90;;;;;;;7.93;100.00;102879.03;3570939;40;20041;-62
2021/04/24 07:26:38;;;;;;;13.23;6.55;;;;;;;7.94;100.00;102883.47;3572147;40;20037;-60
2021/04/24 07:29:04;;;;;;;14.23;6.97;;;;;;;8.14;100.00;102889.72;3571362;40;20069;-60
2021/04/24 07:31:30;;;;;;;11.50;6.22;;;;;;;8.40;100.00;102885.84;3572708;40;20100;-60
2021/04/24 07:33:58;;;;;;;10.50;5.95;;;;;;;8.54;100.00;102896.84;3570367;40;22116;-60
2021/04/24 07:36:25;;;;;;;11.73;5.97;;;;;;;8.58;100.00;102893.06;3571785;40;20961;-61
2021/04/24 07:38:51;;;;;;;10.60;5.85;;;;;;;8.69;100.00;102889.88;3571551;40;20041;-59
2021/04/24 07:41:17;;;;;;;11.20;6.75;;;;;;;8.72;100.00;102889.72;3572441;40;20049;-60
2021/04/24 07:43:43;;;;;;;14.10;6.93;;;;;;;8.84;100.00;102879.34;3569741;40;20084;-60
2021/04/24 07:46:09;;;;;;;14.18;7.05;;;;;;;9.01;100.00;102883.84;3570339;40;20439;-60
2021/04/24 07:48:35;;;;;;;11.13;6.40;;;;;;;9.03;100.00;102885.53;3570830;40;20038;-59
2021/04/24 07:51:02;;;;;;;9.30;5.25;;;;;;;9.14;100.00;102886.81;3572281;40;20069;-62
2021/04/24 07:53:28;;;;;;;11.88;6.10;;;;;;;9.17;100.00;102884.84;3571211;40;20045;-59
2021/04/24 07:55:54;;;;;;;12.13;5.22;;;;;;;9.26;100.00;102881.69;3571366;40;20134;-60
2021/04/24 07:58:20;;;;;;;12.55;5.20;;;;;;;9.64;100.00;102875.28;3570826;40;20077;-60
2021/04/24 08:00:46;;;;;;;13.35;5.32;;;;;;;9.66;100.00;102878.78;3570774;40;21805;-61
2021/04/24 08:03:12;;;;;;;10.23;5.32;;;;;;;9.82;100.00;102885.06;3570405;40;20079;-60
2021/04/24 08:05:38;;;;;;;9.95;4.97;;;;;;;9.65;100.00;102877.88;3571136;40;20391;-63
2021/04/24 08:08:05;;;;;;;9.23;5.40;;;;;;;9.60;100.00;102871.03;3570020;40;20118;-62
2021/04/24 08:10:32;;;;;;;9.88;5.10;;;;;;;9.57;100.00;102868.47;3569868;40;20060;-62
2021/04/24 08:12:59;;;;;;;9.13;5.10;;;;;;;9.47;100.00;102868.97;3571114;40;20037;-63
2021/04/24 08:15:26;;;;;;;10.60;5.53;;;;;;;9.78;100.00;102872.72;3571577;40;20388;-62
2021/04/24 08:17:52;;;;;;;11.50;5.10;;;;;;;9.80;100.00;102870.84;3571948;40;20053;-60
2021/04/24 08:20:18;;;;;;;10.65;5.15;;;;;;;9.69;100.00;102858.91;3571054;40;20049;-59
2021/04/24 08:22:44;;;;;;;7.18;4.80;;;;;;;9.66;100.00;102862.63;3571839;40;20045;-60
2021/04/24 08:25:12;;;;;;;11.10;5.38;;;;;;;9.74;100.00;102871.16;3571555;40;20105;-60
2021/04/24 08:27:39;;;;;;;9.35;4.95;;;;;;;10.06;100.00;102860.50;3571923;40;20052;-60
2021/04/24 08:30:07;;;;;;;8.60;4.72;;;;;;;10.14;100.00;102869.03;3569638;40;20053;-61
2021/04/24 08:32:33;;;;;;;9.10;5.47;;;;;;;10.25;100.00;102863.03;3571248;40;20051;-60
2021/04/24 08:34:59;;;;;;;10.80;4.80;;;;;;;10.14;100.00;102863.66;3571011;40;20280;-61
2021/04/24 08:37:25;;;;;;;7.88;5.07;;;;;;;10.26;100.00;102869.28;3570168;40;20052;-62
2021/04/24 08:39:51;;;;;;;8.82;4.88;;;;;;;10.24;100.00;102866.69;3570889;40;20068;-60
2021/04/24 08:42:18;;;;;;;8.88;4.70;;;;;;;10.64;100.00;102871.69;3570742;40;20045;-60
2021/04/24 08:44:44;;;;;;;7.55;4.90;;;;;;;10.82;100.00;102870.66;3569612;40;20049;-60
2021/04/24 08:47:11;;;;;;;9.82;5.10;;;;;;;10.67;100.00;102876.91;3570012;40;20053;-62
2021/04/24 08:49:40;;;;;;;8.85;4.88;;;;;;;10.94;100.00;102862.81;3567249;40;20134;-59
2021/04/24 08:52:06;;;;;;;10.85;6.00;;;;;;;11.05;100.00;102871.13;3568539;40;20044;-59
2021/04/24 08:54:32;;;;;;;9.63;5.22;;;;;;;10.56;97.57;102880.22;3569137;40;20063;-62
2021/04/24 08:56:58;;;;;;;7.13;4.88;;;;;;;10.82;93.93;102873.34;3569624;40;20045;-60
2021/04/24 08:59:24;;;;;;;6.35;4.15;;;;;;;11.14;84.35;102867.03;3568366;40;20134;-61
2021/04/24 09:01:51;;;;;;;8.65;4.70;;;;;;;10.72;85.45;102863.16;3569589;40;20060;-60
2021/04/24 09:04:17;;;;;;;6.60;3.97;;;;;;;10.95;87.43;102867.25;3568680;40;20292;-60
2021/04/24 09:06:43;;;;;;;7.65;4.20;;;;;;;11.04;82.44;102869.38;3570029;40;20303;-60
2021/04/24 09:09:12;;;;;;;7.75;3.80;;;;;;;10.84;84.33;102870.56;3568814;40;20469;-61
2021/04/24 09:11:40;;;;;;;5.85;3.75;;;;;;;11.12;80.82;102861.75;3569291;40;20049;-60
2021/04/24 09:14:08;;;;;;;6.75;4.45;;;;;;;11.39;81.67;102858.34;3568489;40;20077;-61
2021/04/24 09:16:36;;;;;;;9.88;4.53;;;;;;;11.41;79.18;102853.75;3568278;40;20049;-60
2021/04/24 09:19:24;;;;;;;7.15;4.22;;;;;;;11.17;80.42;102861.47;3568630;40;20343;-64
2021/04/24 09:22:10;;;;;;;8.18;4.60;;;;;;;11.68;86.45;102847.63;3569325;40;20052;-63
2021/04/24 09:24:37;;;;;;;7.78;3.95;;;;;;;11.74;79.54;102858.91;3570632;40;20641;-59
2021/04/24 09:27:03;;;;;;;6.57;4.00;;;;;;;11.81;76.33;102853.16;3570772;40;20131;-60
2021/04/24 09:29:29;;;;;;;8.57;4.50;;;;;;;11.53;75.58;102855.69;3570692;40;20418;-62
2021/04/24 09:32:12;;;;;;;6.78;4.70;;;;;;;11.67;77.04;102852.13;3568634;40;20037;-61
2021/04/24 09:34:39;;;;;;;7.03;4.53;;;;;;;11.80;77.61;102852.25;3570074;40;20292;-61
2021/04/24 09:37:13;;;;;;;8.38;5.15;;;;;;;11.86;78.17;102848.31;3568972;40;20052;-60
2021/04/24 09:39:44;;;;;;;9.73;4.85;;;;;;;11.97;77.87;102853.06;3569456;40;20048;-64
2021/04/24 09:42:35;;;;;;;7.38;5.05;;;;;;;11.86;75.00;102849.16;3570117;40;20045;-62
2021/04/24 09:45:08;;;;;;;7.90;4.63;;;;;;;12.02;80.14;102854.50;3571993;40;20048;-60
2021/04/24 09:47:42;;;;;;;9.48;5.53;;;;;;;11.74;80.05;102848.09;3569424;40;20050;-59
2021/04/24 09:50:15;;;;;;;9.73;5.15;;;;;;;11.63;79.04;102839.81;3569008;40;20045;-62
2021/04/24 09:55:39;;;;;;;10.55;5.00;;;;;;;12.04;76.13;102844.50;3559822;23;20089;-60
2021/04/24 09:58:05;;;;;;;12.18;5.10;;;;;;;12.03;74.32;102833.81;3578918;40;20045;-61
2021/04/24 10:00:31;;;;;;;9.52;4.90;;;;;;;12.14;77.37;102839.38;3579132;40;20037;-64
2021/04/24 10:02:59;;;;;;;8.73;5.57;;;;;;;12.34;72.88;102840.81;3578534;40;20052;-62
2021/04/24 10:05:26;;;;;;;10.27;5.00;;;;;;;12.37;69.27;102847.84;3578825;40;20066;-61
2021/04/24 10:07:53;;;;;;;8.55;5.15;;;;;;;12.44;74.02;102832.97;3579132;40;20040;-61
2021/04/24 10:10:38;;;;;;;7.43;4.78;;;;;;;12.61;70.74;102832.72;3578386;40;20130;-62
2021/04/24 10:13:05;;;;;;;8.18;5.03;;;;;;;12.70;70.66;102827.69;3578962;40;20423;-61
2021/04/24 10:15:36;;;;;;;8.43;5.43;;;;;;;12.48;69.13;102831.78;3578812;40;20112;-67
2021/04/24 10:18:04;;;;;;;10.60;5.30;;;;;;;12.68;69.96;102817.00;3578360;40;20061;-61
2021/04/24 10:20:32;;;;;;;8.93;5.10;;;;;;;12.70;70.95;102819.59;3579429;40;20049;-61
2021/04/24 10:23:00;;;;;;;9.15;5.38;;;;;;;12.95;72.07;102830.47;3579580;40;20057;-59
2021/04/24 10:25:27;;;;;;;9.27;4.65;;;;;;;13.18;71.53;102821.81;3578339;40;20041;-62
2021/04/24 10:27:53;;;;;;;7.80;5.03;;;;;;;13.02;69.26;102819.28;3578371;40;20074;-60
2021/04/24 10:30:20;;;;;;;9.30;4.78;;;;;;;12.80;68.47;102828.81;3581573;40;20374;-60
2021/04/24 10:32:46;;;;;;;9.15;5.00;;;;;;;12.86;69.95;102824.84;3581904;40;20059;-59
2021/04/24 10:35:13;;;;;;;6.20;4.43;;;;;;;12.99;66.88;102824.88;3581116;40;20056;-60
2021/04/24 10:37:41;;;;;;;7.38;4.60;;;;;;;13.18;67.31;102819.09;3580461;40;20053;-61
2021/04/24 10:40:09;;;;;;;10.93;5.22;;;;;;;13.13;65.61;102825.69;3579836;40;20053;-61
2021/04/24 10:42:36;;;;;;;11.13;4.78;;;;;;;13.16;63.14;102819.16;3582116;40;20045;-62
2021/04/24 10:45:06;;;;;;;8.18;5.18;;;;;;;13.24;66.37;102819.53;3580011;40;20063;-61
2021/04/24 10:47:44;;;;;;;9.65;5.45;;;;;;;13.10;64.81;102811.47;3582371;40;20319;-62
2021/04/24 10:50:12;;;;;;;8.27;4.72;;;;;;;13.23;69.14;102806.97;3582187;40;20048;-61
2021/04/24 10:52:39;;;;;;;10.23;5.28;;;;;;;13.29;68.92;102808.38;3582707;40;20673;-62
2021/04/24 10:55:23;;;;;;;10.13;5.10;;;;;;;13.59;64.26;102805.41;3581604;40;20052;-63
2021/04/24 10:57:50;;;;;;;9.32;4.72;;;;;;;13.83;65.25;102810.91;3583315;40;20055;-60
2021/04/24 11:00:18;;;;;;;7.10;4.22;;;;;;;14.11;58.74;102798.09;3580906;40;20535;-61
2021/04/24 11:02:46;;;;;;;8.07;4.88;;;;;;;13.62;63.23;102801.66;3582327;40;20115;-62
2021/04/24 11:05:31;;;;;;;7.68;4.93;;;;;;;13.74;62.18;102798.06;3582559;40;20060;-60
2021/04/24 11:08:34;;;;;;;8.55;5.20;;;;;;;13.36;64.83;102798.06;3582403;40;20081;-59
2021/04/24 11:11:03;;;;;;;7.00;4.75;;;;;;;13.39;67.16;102795.13;3580404;40;20386;-59
2021/04/24 11:13:33;;;;;;;11.23;5.30;;;;;;;13.56;65.80;102792.13;3581812;40;20443;-59
2021/04/24 11:16:02;;;;;;;10.25;5.43;;;;;;;13.61;64.24;102783.66;3581580;40;20044;-60
2021/04/24 11:18:29;;;;;;;;;;;;;;;13.53;67.17;102786.91;3582048;40;20068;-60
2021/04/24 11:20:57;;;;;;;7.32;5.00;;;;;;;13.50;67.29;102787.16;3582500;40;20051;-58
2021/04/24 11:23:46;;;;;;;8.33;5.00;;;;;;;13.57;68.73;102772.19;3582173;40;20096;-59
2021/04/24 11:26:16;;;;;;;10.07;4.93;;;;;;;13.25;66.24;102786.09;3582031;40;20297;-61
2021/04/24 11:29:08;;;;;;;10.32;4.78;;;;;;;13.41;65.78;102779.66;3582261;40;20056;-59
2021/04/24 11:31:55;;;;;;;8.18;4.30;;;;;;;13.83;64.91;102772.16;3573320;40;20099;-60
2021/04/24 11:34:24;;;;;;;9.23;4.47;;;;;;;13.72;60.06;102786.47;3581836;40;20089;-59